Time;durP1;ratioP1;P1;durP2;ratioP2;P2;SDS_P1;SDS_P2;PMS_P1;PMS_P2;Temp;Humidity;BMP_temperature;BMP_pressure;BME280_temperature;BME280_humidity;BME280_pressure;Samples;Min_cycle;Max_cycle;Signal;HPM_P1;HPM_P2
2024/02/05 00:00:36;;;;;;;1.13;0.50;;;8.80;99.90;;;;;;4228638;27;20032;-58
2024/02/05 00:02:38;;;;;;;0.60;0.40;;;8.80;99.90;;;;;;4229234;28;20542;-62
2024/02/05 00:04:39;;;;;;;1.20;0.30;;;8.70;99.90;;;;;;4230268;28;20507;-63
2024/02/05 00:06:41;;;;;;;0.40;0.33;;;8.80;99.90;;;;;;4228469;28;20079;-60
2024/02/05 00:08:42;;;;;;;0.40;0.40;;;8.70;99.90;;;;;;4230046;28;20084;-63
2024/02/05 00:10:43;;;;;;;0.43;0.37;;;8.70;99.90;;;;;;4227485;27;20096;-61
2024/02/05 00:12:44;;;;;;;0.73;0.20;;;8.70;99.90;;;;;;4228992;28;20439;-62
2024/02/05 00:14:46;;;;;;;0.60;0.40;;;8.60;99.90;;;;;;4229012;28;20069;-62
2024/02/05 00:16:47;;;;;;;0.30;0.30;;;8.60;99.90;;;;;;4229693;27;20047;-62
2024/02/05 00:18:48;;;;;;;0.47;0.40;;;8.70;99.90;;;;;;4227875;28;20081;-62
2024/02/05 00:20:49;;;;;;;0.50;0.30;;;8.60;99.90;;;;;;4229935;28;20123;-62
2024/02/05 00:22:50;;;;;;;0.90;0.27;;;8.60;99.90;;;;;;4228628;28;20056;-62
2024/02/05 00:24:51;;;;;;;0.40;0.20;;;8.60;99.90;;;;;;4229800;27;20433;-61
2024/02/05 00:26:54;;;;;;;0.67;0.50;;;8.60;99.90;;;;;;4229278;28;20406;-62
2024/02/05 00:28:55;;;;;;;0.77;0.40;;;8.70;99.90;;;;;;4229177;27;20430;-61
2024/02/05 00:30:56;;;;;;;0.57;0.20;;;8.60;99.90;;;;;;4229386;27;20035;-62
2024/02/05 00:32:57;;;;;;;1.17;0.20;;;8.70;99.90;;;;;;4229252;27;20092;-63
2024/02/05 00:34:58;;;;;;;0.40;0.30;;;8.70;99.90;;;;;;4230649;27;20488;-61
2024/02/05 00:36:59;;;;;;;0.47;0.30;;;8.60;99.90;;;;;;4228779;28;20092;-62
2024/02/05 00:39:01;;;;;;;0.63;0.60;;;8.60;99.90;;;;;;4229327;28;20044;-63
2024/02/05 00:41:03;;;;;;;1.20;0.40;;;8.60;99.90;;;;;;4228260;28;20035;-62
2024/02/05 00:43:04;;;;;;;0.40;0.40;;;8.60;99.90;;;;;;4229438;28;20430;-62
2024/02/05 00:45:07;;;;;;;0.60;0.53;;;8.60;99.90;;;;;;4227112;27;20973;-62
2024/02/05 00:47:08;;;;;;;1.47;0.80;;;8.60;99.90;;;;;;4228320;28;20065;-62
2024/02/05 00:49:09;;;;;;;2.60;1.10;;;8.60;99.90;;;;;;4228158;27;20039;-62
2024/02/05 00:51:10;;;;;;;1.30;0.60;;;8.60;99.90;;;;;;4229887;27;20084;-62
2024/02/05 00:53:12;;;;;;;1.87;0.50;;;8.60;99.90;;;;;;4228608;27;20043;-62
2024/02/05 00:55:13;;;;;;;1.13;0.60;;;8.60;99.90;;;;;;4229471;27;20376;-61
2024/02/05 00:57:14;;;;;;;1.07;0.77;;;8.60;99.90;;;;;;4228102;28;20085;-63
2024/02/05 00:59:15;;;;;;;1.40;0.70;;;8.60;99.90;;;;;;4229072;27;20108;-63
2024/02/05 01:01:17;;;;;;;1.53;0.80;;;8.60;99.90;;;;;;4228645;28;20024;-61
2024/02/05 01:03:18;;;;;;;0.97;0.37;;;8.60;99.90;;;;;;4228753;28;20349;-61
2024/02/05 01:05:19;;;;;;;2.07;0.70;;;8.60;99.90;;;;;;4229097;28;20077;-62
2024/02/05 01:07:20;;;;;;;2.50;1.10;;;8.60;99.90;;;;;;4226418;28;20093;-61
2024/02/05 01:09:22;;;;;;;4.47;1.83;;;8.60;99.90;;;;;;4217295;28;20116;-61
2024/02/05 01:11:23;;;;;;;0.87;0.60;;;8.60;99.90;;;;;;4211204;28;20040;-62
2024/02/05 01:13:25;;;;;;;1.27;0.50;;;8.60;99.90;;;;;;4211034;28;20027;-63
2024/02/05 01:15:26;;;;;;;0.80;0.67;;;8.60;99.90;;;;;;4211063;28;20094;-63
2024/02/05 01:17:27;;;;;;;1.13;0.80;;;8.60;99.90;;;;;;4215535;28;20437;-64
2024/02/05 01:19:28;;;;;;;1.17;0.57;;;8.60;99.90;;;;;;4228021;28;20088;-61
2024/02/05 01:21:29;;;;;;;0.80;0.50;;;8.60;99.90;;;;;;4228958;28;20060;-61
2024/02/05 01:23:31;;;;;;;2.20;0.90;;;8.70;99.90;;;;;;4227836;28;20036;-63
2024/02/05 01:25:32;;;;;;;0.50;0.50;;;8.70;99.90;;;;;;4228350;28;20040;-61
2024/02/05 01:27:33;;;;;;;0.40;0.40;;;8.70;99.90;;;;;;4227712;28;20028;-62
2024/02/05 01:29:34;;;;;;;0.57;0.30;;;8.70;99.90;;;;;;4228442;28;20024;-62
2024/02/05 01:31:36;;;;;;;0.80;0.60;;;8.80;99.90;;;;;;4227911;27;20031;-62
2024/02/05 01:33:37;;;;;;;0.40;0.37;;;8.70;99.90;;;;;;4228586;28;20023;-62
2024/02/05 01:35:39;;;;;;;3.97;1.13;;;8.80;99.90;;;;;;4228159;28;20119;-61
2024/02/05 01:37:40;;;;;;;0.70;0.50;;;8.70;99.90;;;;;;4227797;28;20024;-61
2024/02/05 01:39:41;;;;;;;0.70;0.50;;;8.70;99.90;;;;;;4227660;28;20048;-63
2024/02/05 01:41:42;;;;;;;0.90;0.40;;;8.70;99.90;;;;;;4227567;28;20433;-62
2024/02/05 01:43:45;;;;;;;0.40;0.30;;;8.70;99.90;;;;;;4228789;27;20077;-62
2024/02/05 01:45:47;;;;;;;1.33;0.60;;;8.70;99.90;;;;;;4227646;28;20048;-60
2024/02/05 01:47:48;;;;;;;1.00;0.67;;;8.70;99.90;;;;;;4228713;28;20039;-60
2024/02/05 01:49:50;;;;;;;1.43;0.33;;;8.70;99.90;;;;;;4227251;28;20027;-60
2024/02/05 01:51:54;;;;;;;0.40;0.30;;;8.70;99.90;;;;;;4228795;28;20040;-60
2024/02/05 01:53:57;;;;;;;0.30;0.20;;;8.70;99.90;;;;;;4227190;28;20080;-61
2024/02/05 01:55:58;;;;;;;0.30;0.30;;;8.70;99.90;;;;;;4228477;28;20112;-61
2024/02/05 01:57:59;;;;;;;0.47;0.37;;;8.70;99.90;;;;;;4227238;28;20036;-62
2024/02/05 02:00:00;;;;;;;0.20;0.20;;;8.70;99.90;;;;;;4227359;28;20039;-60
2024/02/05 02:02:02;;;;;;;0.70;0.40;;;8.70;99.90;;;;;;4227045;28;20023;-62
2024/02/05 02:04:05;;;;;;;0.83;0.60;;;8.70;99.90;;;;;;4228450;28;20023;-63
2024/02/05 02:06:09;;;;;;;0.67;0.67;;;8.70;99.90;;;;;;4227829;28;20031;-61
2024/02/05 02:08:13;;;;;;;0.30;0.30;;;8.70;99.90;;;;;;4227718;27;20503;-61
2024/02/05 02:10:15;;;;;;;0.40;0.30;;;8.60;99.90;;;;;;4227863;28;20069;-61
2024/02/05 02:12:16;;;;;;;0.30;0.30;;;8.60;99.90;;;;;;4226447;27;20039;-61
2024/02/05 02:14:17;;;;;;;0.53;0.23;;;8.60;99.90;;;;;;4227555;28;20024;-58
2024/02/05 02:16:23;;;;;;;0.50;0.30;;;8.60;99.90;;;;;;4226412;27;20851;-60
2024/02/05 02:18:26;;;;;;;0.60;0.30;;;8.60;99.90;;;;;;4227852;27;20048;-62
2024/02/05 02:20:32;;;;;;;0.30;0.30;;;8.60;99.90;;;;;;4227338;28;20093;-61
2024/02/05 02:22:39;;;;;;;0.40;0.20;;;8.50;99.90;;;;;;4227651;28;20441;-61
2024/02/05 02:24:42;;;;;;;0.30;0.20;;;8.50;99.90;;;;;;4227103;28;20032;-61
2024/02/05 02:26:43;;;;;;;0.40;0.30;;;8.50;99.90;;;;;;4227894;28;20180;-61
2024/02/05 02:28:44;;;;;;;0.57;0.50;;;8.50;99.90;;;;;;4226763;28;20127;-62
2024/02/05 02:30:46;;;;;;;1.10;0.43;;;8.50;99.90;;;;;;4228052;28;20031;-60
2024/02/05 02:33:10;;;;;;;0.40;0.30;;;8.50;99.90;;;;;;4227211;28;20047;-62
2024/02/05 02:35:17;;;;;;;0.73;0.40;;;8.50;99.90;;;;;;4228375;28;20039;-61
2024/02/05 02:37:21;;;;;;;3.40;1.07;;;8.50;99.90;;;;;;4227241;28;20085;-63
2024/02/05 02:39:31;;;;;;;0.60;0.30;;;8.50;99.90;;;;;;4227517;28;20051;-61
2024/02/05 02:41:38;;;;;;;0.85;0.22;;;8.50;99.90;;;;;;4227009;28;20049;-62
2024/02/05 02:44:00;;;;;;;0.60;0.40;;;8.50;99.90;;;;;;4227794;28;20051;-63
2024/02/05 02:46:03;;;;;;;1.43;0.30;;;8.50;99.90;;;;;;4226803;28;20028;-62
2024/02/05 02:48:04;;;;;;;0.40;0.40;;;8.50;99.90;;;;;;4227980;28;20093;-63
2024/02/05 02:50:07;;;;;;;0.67;0.40;;;8.50;99.90;;;;;;4226625;28;20039;-60
2024/02/05 02:52:09;;;;;;;0.20;0.20;;;8.50;99.90;;;;;;4227987;28;20056;-59
2024/02/05 02:54:10;;;;;;;0.70;0.50;;;8.60;99.90;;;;;;4227128;28;20043;-62
2024/02/05 02:56:11;;;;;;;0.73;0.40;;;8.60;99.90;;;;;;4227746;28;20036;-62
2024/02/05 02:58:12;;;;;;;0.40;0.40;;;8.60;99.90;;;;;;4226330;28;20024;-60
2024/02/05 03:00:14;;;;;;;0.83;0.33;;;8.60;99.90;;;;;;4227586;28;20043;-60
2024/02/05 03:02:16;;;;;;;0.70;0.67;;;8.60;99.90;;;;;;4226679;28;20430;-60
2024/02/05 03:04:17;;;;;;;0.63;0.40;;;8.60;99.90;;;;;;4227607;28;20077;-62
2024/02/05 03:06:18;;;;;;;0.80;0.30;;;8.60;99.90;;;;;;4227527;28;20028;-61
2024/02/05 03:08:19;;;;;;;0.40;0.30;;;8.60;99.90;;;;;;4227150;28;20043;-61
2024/02/05 03:10:21;;;;;;;0.67;0.50;;;8.60;99.90;;;;;;4227629;28;20344;-61
2024/02/05 03:12:22;;;;;;;0.50;0.30;;;8.60;99.90;;;;;;4226332;28;20032;-60
2024/02/05 03:14:25;;;;;;;0.70;0.33;;;8.60;99.90;;;;;;4227911;28;20104;-61
2024/02/05 03:16:26;;;;;;;1.00;0.57;;;8.60;99.90;;;;;;4226456;28;20048;-61
2024/02/05 03:18:28;;;;;;;0.20;0.20;;;8.60;99.90;;;;;;4227215;28;20043;-62
2024/02/05 03:20:47;;;;;;;1.90;0.27;;;8.60;99.90;;;;;;4226390;28;20040;-62
2024/02/05 03:22:48;;;;;;;0.63;0.50;;;8.50;99.90;;;;;;4226809;28;20540;-61
2024/02/05 03:24:49;;;;;;;0.93;0.30;;;8.50;99.90;;;;;;4224505;28;20039;-61
2024/02/05 03:26:50;;;;;;;0.67;0.30;;;8.50;99.90;;;;;;4227730;28;20039;-62
2024/02/05 03:28:52;;;;;;;0.70;0.37;;;8.50;99.90;;;;;;4225669;28;20084;-61
2024/02/05 03:30:53;;;;;;;0.50;0.40;;;8.60;99.90;;;;;;4227270;28;20085;-62
2024/02/05 03:32:54;;;;;;;0.50;0.30;;;8.60;99.90;;;;;;4226590;28;20028;-62
2024/02/05 03:34:55;;;;;;;0.40;0.30;;;8.60;99.90;;;;;;4229292;28;20031;-63
2024/02/05 03:36:57;;;;;;;0.40;0.30;;;8.60;99.90;;;;;;4229498;28;20023;-61
2024/02/05 03:38:58;;;;;;;0.73;0.60;;;8.60;99.90;;;;;;4228570;27;20090;-63
2024/02/05 03:40:59;;;;;;;1.33;0.30;;;8.60;99.90;;;;;;4229904;28;20047;-61
2024/02/05 03:43:01;;;;;;;0.40;0.40;;;8.50;99.90;;;;;;4229804;28;20084;-62
2024/02/05 03:45:02;;;;;;;0.40;0.30;;;8.50;99.90;;;;;;4229779;28;20080;-62
2024/02/05 03:47:03;;;;;;;0.50;0.20;;;8.50;99.90;;;;;;4229555;27;20065;-62
2024/02/05 03:49:05;;;;;;;0.53;0.30;;;8.50;99.90;;;;;;4230297;28;20035;-61
2024/02/05 03:51:06;;;;;;;0.10;0.10;;;8.60;99.90;;;;;;4227880;28;20047;-61
2024/02/05 03:53:07;;;;;;;0.30;0.20;;;8.50;99.90;;;;;;4230402;28;20092;-61
2024/02/05 03:55:09;;;;;;;0.47;0.33;;;8.60;99.90;;;;;;4229338;27;20081;-61
2024/02/05 03:57:10;;;;;;;0.73;0.30;;;8.50;99.90;;;;;;4230087;28;20055;-60
2024/02/05 03:59:11;;;;;;;0.47;0.30;;;8.50;99.90;;;;;;4229122;28;20039;-60
2024/02/05 04:01:13;;;;;;;0.20;0.10;;;8.50;99.90;;;;;;4230061;28;20092;-61
2024/02/05 04:03:14;;;;;;;0.70;0.40;;;8.50;99.90;;;;;;4228822;28;20663;-62
2024/02/05 04:05:15;;;;;;;0.97;0.20;;;8.60;99.90;;;;;;4230620;28;20043;-60
2024/02/05 04:07:16;;;;;;;0.40;0.13;;;8.60;99.90;;;;;;4228953;28;20031;-60
2024/02/05 04:09:17;;;;;;;0.20;0.20;;;8.60;99.90;;;;;;4230560;27;20085;-61
2024/02/05 04:11:19;;;;;;;0.73;0.50;;;8.60;99.90;;;;;;4228992;28;20028;-60
2024/02/05 04:13:20;;;;;;;0.30;0.20;;;8.60;99.90;;;;;;4229207;28;20031;-60
2024/02/05 04:15:21;;;;;;;0.40;0.20;;;8.50;99.90;;;;;;4229655;28;20015;-60
2024/02/05 04:17:25;;;;;;;0.77;0.30;;;8.50;99.90;;;;;;4229161;27;20036;-61
2024/02/05 04:19:26;;;;;;;0.60;0.60;;;8.50;99.90;;;;;;4229851;27;20109;-60
2024/02/05 04:21:27;;;;;;;0.50;0.20;;;8.50;99.90;;;;;;4211799;28;20093;-60
2024/02/05 04:23:29;;;;;;;0.83;0.10;;;8.50;99.90;;;;;;4212902;28;20093;-60
2024/02/05 04:25:30;;;;;;;2.20;0.40;;;8.50;99.90;;;;;;4211870;28;20089;-60
2024/02/05 04:27:31;;;;;;;0.37;0.30;;;8.50;99.90;;;;;;4213029;28;20094;-62
2024/02/05 04:29:36;;;;;;;0.43;0.33;;;8.50;99.90;;;;;;4211920;28;20549;-60
2024/02/05 04:31:37;;;;;;;0.20;0.20;;;8.60;99.90;;;;;;4226016;28;20357;-62
2024/02/05 04:33:39;;;;;;;0.40;0.27;;;8.60;99.90;;;;;;4228718;28;20529;-61
2024/02/05 04:35:41;;;;;;;0.30;0.20;;;8.60;99.90;;;;;;4230215;27;20039;-61
2024/02/05 04:37:43;;;;;;;0.30;0.30;;;8.70;99.90;;;;;;4228426;27;20112;-61
2024/02/05 04:39:44;;;;;;;0.17;0.10;;;8.70;99.90;;;;;;4227494;28;20132;-62
2024/02/05 04:41:45;;;;;;;1.53;0.50;;;8.70;99.90;;;;;;4228461;28;20109;-61
2024/02/05 04:43:47;;;;;;;0.20;0.20;;;8.70;99.90;;;;;;4229116;28;20081;-62
2024/02/05 04:45:48;;;;;;;0.50;0.30;;;8.70;99.90;;;;;;4228137;28;20023;-63
2024/02/05 04:47:49;;;;;;;0.47;0.30;;;8.70;99.90;;;;;;4228803;27;20047;-61
2024/02/05 04:49:50;;;;;;;0.50;0.23;;;8.80;99.90;;;;;;4228781;28;20077;-60
2024/02/05 04:51:52;;;;;;;0.50;0.13;;;8.80;99.90;;;;;;4227936;28;20035;-61
2024/02/05 04:53:54;;;;;;;0.23;0.20;;;8.80;99.90;;;;;;4229189;27;20541;-61
2024/02/05 04:55:55;;;;;;;0.23;0.10;;;8.90;99.90;;;;;;4227968;27;20491;-61
2024/02/05 04:57:56;;;;;;;0.20;0.10;;;8.90;99.90;;;;;;4229093;28;20028;-60
2024/02/05 04:59:57;;;;;;;0.40;0.20;;;8.90;99.90;;;;;;4228167;27;20441;-61
2024/02/05 05:01:59;;;;;;;2.83;0.40;;;8.90;99.90;;;;;;4228541;27;20047;-62
2024/02/05 05:04:00;;;;;;;0.70;0.40;;;8.90;99.90;;;;;;4228346;28;20024;-61
2024/02/05 05:06:02;;;;;;;0.50;0.30;;;8.90;99.90;;;;;;4228873;28;20112;-61
2024/02/05 05:08:03;;;;;;;1.07;0.30;;;8.90;99.90;;;;;;4225565;28;20400;-61
2024/02/05 05:10:05;;;;;;;1.10;0.80;;;8.90;99.90;;;;;;4228841;27;20096;-62
2024/02/05 05:12:06;;;;;;;0.40;0.30;;;8.90;99.90;;;;;;4227323;28;20084;-61
2024/02/05 05:14:07;;;;;;;0.80;0.50;;;9.00;99.90;;;;;;4228509;28;20035;-62
2024/02/05 05:16:09;;;;;;;0.43;0.40;;;8.90;99.90;;;;;;4225117;28;20023;-62
2024/02/05 05:18:10;;;;;;;0.53;0.30;;;8.90;99.90;;;;;;4228328;28;20475;-64
2024/02/05 05:20:12;;;;;;;0.60;0.43;;;8.90;99.90;;;;;;4228050;27;20069;-61
2024/02/05 05:22:13;;;;;;;0.60;0.40;;;9.00;99.90;;;;;;4227742;28;20048;-62
2024/02/05 05:24:15;;;;;;;2.00;1.07;;;9.00;99.90;;;;;;4228334;27;20092;-58
2024/02/05 05:26:16;;;;;;;0.83;0.30;;;9.00;99.90;;;;;;4227732;28;20077;-60
2024/02/05 05:28:17;;;;;;;0.57;0.20;;;9.10;99.90;;;;;;4227183;27;20036;-61
2024/02/05 05:30:18;;;;;;;1.13;0.40;;;9.10;99.90;;;;;;4227205;28;20084;-64
2024/02/05 05:32:19;;;;;;;1.60;1.07;;;9.10;99.90;;;;;;4228550;28;20556;-61
2024/02/05 05:34:21;;;;;;;0.90;0.50;;;9.10;99.90;;;;;;4228152;27;20488;-61
2024/02/05 05:36:25;;;;;;;0.90;0.60;;;9.10;99.90;;;;;;4228755;27;20084;-60
2024/02/05 05:38:27;;;;;;;1.53;0.50;;;9.10;99.90;;;;;;4227035;28;20027;-58
2024/02/05 05:40:28;;;;;;;0.30;0.23;;;9.10;99.90;;;;;;4228258;28;20487;-60
2024/02/05 05:42:30;;;;;;;0.40;0.30;;;9.20;99.90;;;;;;4226829;28;20077;-60
2024/02/05 05:44:31;;;;;;;0.57;0.40;;;9.20;99.90;;;;;;4228567;28;20491;-61
2024/02/05 05:46:32;;;;;;;1.13;0.70;;;9.20;99.90;;;;;;4226955;28;20369;-60
2024/02/05 05:48:33;;;;;;;1.50;0.83;;;9.20;99.90;;;;;;4227724;28;20061;-61
2024/02/05 05:50:35;;;;;;;0.90;0.50;;;9.20;99.90;;;;;;4227796;27;20039;-60
2024/02/05 05:52:36;;;;;;;0.80;0.67;;;9.20;99.90;;;;;;4227028;28;20039;-59
2024/02/05 05:54:37;;;;;;;0.97;0.40;;;9.20;99.90;;;;;;4227774;27;20433;-60
2024/02/05 05:56:38;;;;;;;2.10;0.30;;;9.20;99.90;;;;;;4223753;27;20065;-60
2024/02/05 05:58:39;;;;;;;0.70;0.50;;;9.30;99.90;;;;;;4227226;28;20039;-61
2024/02/05 06:00:41;;;;;;;0.77;0.50;;;9.20;99.90;;;;;;4226511;28;20092;-60
2024/02/05 06:02:42;;;;;;;0.90;0.40;;;9.30;99.90;;;;;;4227927;28;20381;-61
2024/02/05 06:04:43;;;;;;;1.10;0.80;;;9.30;99.90;;;;;;4227080;28;20024;-59
2024/02/05 06:06:44;;;;;;;1.27;0.50;;;9.30;99.90;;;;;;4228018;28;20406;-59
2024/02/05 06:08:45;;;;;;;0.73;0.50;;;9.30;99.90;;;;;;4226420;28;20031;-61
2024/02/05 06:10:47;;;;;;;0.50;0.40;;;9.30;99.90;;;;;;4227921;28;20478;-62
2024/02/05 06:12:48;;;;;;;0.83;0.20;;;9.40;99.90;;;;;;4226381;28;20754;-60
2024/02/05 06:14:49;;;;;;;0.40;0.20;;;9.40;99.90;;;;;;4228119;27;20047;-61
2024/02/05 06:16:50;;;;;;;0.60;0.50;;;9.50;99.90;;;;;;4226613;28;20073;-62
2024/02/05 06:18:52;;;;;;;0.50;0.50;;;9.50;99.90;;;;;;4227842;28;20421;-60
2024/02/05 06:20:53;;;;;;;1.77;0.80;;;9.50;99.90;;;;;;4226866;28;20055;-61
2024/02/05 06:22:54;;;;;;;1.03;0.60;;;9.50;99.90;;;;;;4227236;28;20108;-62
2024/02/05 06:24:55;;;;;;;0.70;0.40;;;9.50;99.90;;;;;;4226892;28;20072;-62
2024/02/05 06:26:58;;;;;;;0.87;0.77;;;9.50;99.90;;;;;;4225556;28;20125;-63
2024/02/05 06:28:59;;;;;;;1.17;0.70;;;9.60;99.90;;;;;;4226457;28;20865;-62
2024/02/05 06:31:00;;;;;;;1.03;0.67;;;9.60;99.90;;;;;;4226339;28;20047;-61
2024/02/05 06:33:02;;;;;;;1.37;0.40;;;9.60;99.90;;;;;;4227726;28;20043;-62
2024/02/05 06:35:03;;;;;;;1.70;0.70;;;9.60;99.90;;;;;;4226399;28;20073;-63
2024/02/05 06:37:04;;;;;;;1.07;0.60;;;9.70;99.90;;;;;;4227318;28;20088;-62
2024/02/05 06:39:05;;;;;;;1.17;0.50;;;9.80;99.90;;;;;;4226519;28;20769;-63
2024/02/05 06:41:07;;;;;;;0.97;0.70;;;9.80;99.90;;;;;;4227479;28;20101;-63
2024/02/05 06:43:09;;;;;;;1.33;0.83;;;9.90;99.90;;;;;;4226337;28;20088;-63
2024/02/05 06:45:11;;;;;;;3.33;1.03;;;10.00;99.90;;;;;;4227473;28;20035;-62
2024/02/05 06:47:12;;;;;;;1.37;0.70;;;10.00;99.90;;;;;;4226862;28;20047;-62
2024/02/05 06:49:14;;;;;;;0.83;0.30;;;10.00;99.90;;;;;;4227943;28;20036;-64
2024/02/05 06:51:16;;;;;;;1.93;0.73;;;10.10;99.90;;;;;;4226559;28;20082;-63
2024/02/05 06:53:17;;;;;;;1.77;0.50;;;10.20;99.90;;;;;;4227452;28;20081;-61
2024/02/05 06:55:18;;;;;;;0.40;0.30;;;10.40;99.90;;;;;;4226690;28;20053;-62
2024/02/05 06:57:19;;;;;;;0.27;0.20;;;10.50;99.90;;;;;;4226698;28;20023;-60
2024/02/05 06:59:20;;;;;;;0.97;0.13;;;10.50;99.90;;;;;;4226961;28;20084;-61
2024/02/05 07:01:22;;;;;;;0.63;0.30;;;10.50;99.90;;;;;;4226807;28;20504;-62
2024/02/05 07:03:23;;;;;;;0.77;0.70;;;10.50;99.90;;;;;;4227633;28;20438;-60
2024/02/05 07:05:24;;;;;;;1.30;0.80;;;10.40;99.90;;;;;;4227298;28;20092;-61
2024/02/05 07:07:25;;;;;;;3.50;1.33;;;10.40;99.90;;;;;;4227430;28;20088;-61
2024/02/05 07:09:26;;;;;;;3.17;1.70;;;10.30;99.90;;;;;;4228770;28;20035;-60
2024/02/05 07:11:28;;;;;;;0.60;0.60;;;10.30;99.90;;;;;;4230829;28;20100;-61
2024/02/05 07:13:29;;;;;;;4.00;0.80;;;10.20;99.90;;;;;;4229467;27;20085;-61
2024/02/05 07:15:34;;;;;;;0.77;0.50;;;10.30;99.90;;;;;;4231023;28;20535;-62
2024/02/05 07:17:36;;;;;;;2.17;1.67;;;10.30;99.90;;;;;;4229813;27;20081;-62
2024/02/05 07:19:37;;;;;;;1.43;1.33;;;10.30;99.90;;;;;;4230796;28;20031;-62
2024/02/05 07:21:38;;;;;;;3.50;1.77;;;10.20;99.90;;;;;;4229337;28;20031;-61
2024/02/05 07:23:39;;;;;;;3.40;0.87;;;10.20;99.90;;;;;;4230897;28;20040;-62
2024/02/05 07:25:41;;;;;;;1.20;1.10;;;10.20;99.90;;;;;;4229548;28;20035;-62
2024/02/05 07:27:42;;;;;;;0.77;0.67;;;10.20;99.90;;;;;;4230052;28;20097;-62
2024/02/05 07:29:45;;;;;;;1.57;0.97;;;10.20;99.90;;;;;;4229849;28;20437;-63
2024/02/05 07:31:46;;;;;;;2.90;0.80;;;10.10;99.90;;;;;;4230184;28;20097;-63
2024/02/05 07:33:47;;;;;;;0.40;0.30;;;10.20;99.90;;;;;;4229757;28;20540;-62
2024/02/05 07:35:48;;;;;;;4.20;0.47;;;10.20;99.90;;;;;;4229920;28;20035;-62
2024/02/05 07:37:50;;;;;;;1.63;0.40;;;10.30;99.90;;;;;;4230294;28;20545;-62
2024/02/05 07:39:51;;;;;;;0.80;0.50;;;10.30;99.90;;;;;;4229620;28;20073;-62
2024/02/05 07:41:52;;;;;;;0.50;0.40;;;10.30;99.90;;;;;;4230450;28;20047;-62
2024/02/05 07:43:54;;;;;;;0.50;0.30;;;10.30;99.90;;;;;;4229653;28;20112;-63
2024/02/05 07:45:56;;;;;;;1.17;0.50;;;10.40;99.90;;;;;;4229189;27;20388;-61
2024/02/05 07:47:57;;;;;;;0.50;0.23;;;10.40;99.90;;;;;;4229169;28;20056;-62
2024/02/05 07:49:59;;;;;;;0.20;0.13;;;10.40;99.90;;;;;;4230456;28;20073;-62
2024/02/05 07:52:00;;;;;;;2.57;0.60;;;10.40;99.90;;;;;;4228704;28;20040;-61
2024/02/05 07:54:01;;;;;;;2.30;0.40;;;10.40;99.90;;;;;;4230438;28;20024;-62
2024/02/05 07:56:08;;;;;;;0.70;0.40;;;10.50;99.90;;;;;;4229187;28;20425;-62
2024/02/05 07:58:10;;;;;;;1.87;0.50;;;10.50;99.90;;;;;;4230064;28;20083;-63
2024/02/05 08:00:12;;;;;;;0.60;0.40;;;10.50;99.90;;;;;;4228876;28;20503;-62
2024/02/05 08:02:13;;;;;;;0.63;0.30;;;10.50;99.90;;;;;;4229702;28;20043;-62
2024/02/05 08:04:15;;;;;;;2.50;0.50;;;10.50;99.90;;;;;;4227743;28;20143;-61
2024/02/05 08:06:19;;;;;;;0.70;0.50;;;10.60;99.90;;;;;;4229830;28;20069;-61
2024/02/05 08:08:20;;;;;;;2.87;0.70;;;10.60;99.90;;;;;;4229625;28;20045;-63
2024/02/05 08:10:22;;;;;;;2.27;0.77;;;10.60;99.90;;;;;;4229039;28;20061;-61
2024/02/05 08:12:23;;;;;;;0.60;0.43;;;10.70;99.90;;;;;;4229427;28;20430;-61
2024/02/05 08:14:24;;;;;;;1.83;0.47;;;10.70;99.90;;;;;;4228599;28;20100;-61
2024/02/05 08:16:25;;;;;;;2.77;0.70;;;10.80;99.90;;;;;;4229775;28;20076;-61
2024/02/05 08:18:26;;;;;;;0.60;0.43;;;10.80;99.90;;;;;;4228612;28;20076;-62
2024/02/05 08:20:28;;;;;;;2.63;0.50;;;10.80;99.90;;;;;;4228914;28;20516;-61
2024/02/05 08:22:30;;;;;;;1.87;0.60;;;10.90;99.90;;;;;;4228524;28;20140;-63
2024/02/05 08:24:31;;;;;;;2.33;0.43;;;10.90;99.90;;;;;;4229819;28;20489;-62
2024/02/05 08:26:34;;;;;;;1.87;1.00;;;11.00;99.90;;;;;;4229008;27;20127;-62
2024/02/05 08:28:36;;;;;;;0.87;0.50;;;11.00;99.90;;;;;;4229543;28;20035;-61
2024/02/05 08:30:37;;;;;;;1.80;0.77;;;11.10;99.90;;;;;;4228590;28;20068;-61
2024/02/05 08:32:38;;;;;;;2.97;1.67;;;11.10;99.90;;;;;;4229676;28;20505;-63
2024/02/05 08:34:40;;;;;;;1.37;0.90;;;11.20;99.90;;;;;;4228916;28;20027;-62
2024/02/05 08:36:41;;;;;;;1.87;0.73;;;11.20;99.90;;;;;;4229705;28;20035;-62
2024/02/05 08:38:43;;;;;;;2.40;0.80;;;11.30;99.90;;;;;;4228937;27;20027;-62
2024/02/05 08:40:45;;;;;;;1.73;0.80;;;11.30;99.90;;;;;;4228593;27;20437;-62
2024/02/05 08:42:46;;;;;;;1.20;1.00;;;11.40;99.90;;;;;;4228775;28;20031;-62
2024/02/05 08:44:48;;;;;;;1.87;1.00;;;11.40;99.90;;;;;;4228829;27;20093;-61
2024/02/05 08:46:49;;;;;;;1.57;0.77;;;11.40;99.90;;;;;;4229438;28;20104;-61
2024/02/05 08:48:50;;;;;;;3.00;0.50;;;11.40;99.90;;;;;;4226700;28;20043;-62
2024/02/05 08:50:51;;;;;;;5.93;0.80;;;11.40;99.90;;;;;;4229315;28;20077;-62
2024/02/05 08:52:52;;;;;;;4.10;1.00;;;11.40;99.90;;;;;;4228025;27;20043;-62
2024/02/05 08:54:53;;;;;;;1.77;0.80;;;11.40;99.90;;;;;;4229027;28;20112;-61
2024/02/05 08:56:54;;;;;;;0.87;0.80;;;11.40;99.90;;;;;;4227593;28;20028;-62
2024/02/05 08:58:56;;;;;;;0.93;0.60;;;11.50;99.90;;;;;;4228940;28;20069;-61
2024/02/05 09:00:57;;;;;;;2.40;0.97;;;11.40;99.90;;;;;;4227561;28;20101;-61
2024/02/05 09:02:58;;;;;;;1.50;1.10;;;11.50;99.90;;;;;;4229237;27;20077;-62
2024/02/05 09:04:59;;;;;;;4.97;1.30;;;11.50;99.90;;;;;;4227962;28;20156;-61
2024/02/05 09:07:00;;;;;;;2.47;1.13;;;11.50;99.90;;;;;;4229464;27;20444;-62
2024/02/05 09:09:03;;;;;;;1.47;1.10;;;11.50;99.90;;;;;;4227980;28;20484;-63
2024/02/05 09:11:05;;;;;;;4.00;1.20;;;11.50;99.90;;;;;;4228392;28;20039;-61
2024/02/05 09:13:06;;;;;;;1.80;0.90;;;11.50;99.90;;;;;;4228044;28;20370;-61
2024/02/05 09:15:08;;;;;;;3.27;1.27;;;11.50;99.90;;;;;;4227856;28;20019;-62
2024/02/05 09:17:09;;;;;;;1.57;0.90;;;11.60;99.90;;;;;;4228495;28;20085;-63
2024/02/05 09:19:10;;;;;;;1.50;0.90;;;11.60;99.90;;;;;;4227562;28;20031;-62
2024/02/05 09:21:11;;;;;;;1.43;1.00;;;11.70;99.90;;;;;;4228643;28;20135;-63
2024/02/05 09:23:12;;;;;;;1.50;0.60;;;11.70;99.90;;;;;;4227365;28;20460;-61
2024/02/05 09:25:14;;;;;;;1.67;1.33;;;11.70;99.90;;;;;;4228699;28;20432;-62
2024/02/05 09:27:15;;;;;;;1.33;0.50;;;11.70;99.90;;;;;;4227356;28;20093;-63
2024/02/05 09:29:17;;;;;;;2.10;0.80;;;11.70;99.90;;;;;;4228564;28;20023;-61
2024/02/05 09:31:18;;;;;;;1.63;0.60;;;11.80;99.90;;;;;;4227818;27;20035;-63
2024/02/05 09:33:20;;;;;;;1.40;1.20;;;11.80;99.90;;;;;;4227745;28;20035;-62
2024/02/05 09:35:22;;;;;;;0.80;0.60;;;11.80;99.90;;;;;;4227384;28;20044;-63
2024/02/05 09:37:23;;;;;;;1.63;0.60;;;11.80;99.90;;;;;;4228608;28;20080;-63
2024/02/05 09:39:24;;;;;;;1.40;0.70;;;11.80;99.90;;;;;;4227300;28;20092;-63
2024/02/05 09:41:32;;;;;;;2.60;0.90;;;11.80;99.90;;;;;;4227953;28;20159;-62
2024/02/05 09:43:33;;;;;;;1.03;0.50;;;11.80;99.90;;;;;;4227459;28;20036;-63
2024/02/05 09:45:39;;;;;;;1.20;0.80;;;11.70;99.90;;;;;;4227737;28;20043;-62
2024/02/05 09:47:41;;;;;;;2.57;0.83;;;11.70;99.90;;;;;;4227541;27;20104;-61
2024/02/05 09:49:43;;;;;;;2.03;1.00;;;11.70;99.90;;;;;;4227455;28;20097;-62
2024/02/05 09:51:47;;;;;;;2.13;0.93;;;11.60;99.90;;;;;;4227990;28;20020;-64
2024/02/05 09:53:48;;;;;;;1.07;0.97;;;11.60;99.90;;;;;;4227334;28;20147;-62
2024/02/05 09:55:50;;;;;;;1.50;0.93;;;11.60;99.90;;;;;;4228064;28;20049;-62
2024/02/05 09:57:52;;;;;;;1.57;0.77;;;11.60;99.90;;;;;;4226722;28;20077;-62
2024/02/05 09:59:54;;;;;;;0.93;0.87;;;11.60;99.90;;;;;;4228083;28;20024;-61
2024/02/05 10:01:57;;;;;;;2.87;0.87;;;11.50;99.90;;;;;;4227020;28;20552;-61
2024/02/05 10:04:01;;;;;;;3.90;1.97;;;11.50;99.90;;;;;;4228189;28;20497;-62
2024/02/05 10:06:07;;;;;;;7.10;3.73;;;11.40;99.90;;;;;;4227313;28;20472;-62
2024/02/05 10:08:08;;;;;;;1.30;0.93;;;11.40;99.90;;;;;;4227792;28;20442;-62
2024/02/05 10:10:11;;;;;;;1.17;1.00;;;11.40;99.90;;;;;;4226779;28;20048;-62
2024/02/05 10:12:13;;;;;;;1.50;0.90;;;11.40;99.90;;;;;;4227500;28;20097;-62
2024/02/05 10:14:15;;;;;;;3.57;0.90;;;11.30;99.90;;;;;;4226738;28;20084;-62
2024/02/05 10:16:17;;;;;;;2.67;1.00;;;11.20;99.90;;;;;;4228143;28;20370;-62
2024/02/05 10:18:18;;;;;;;1.87;1.07;;;11.20;99.90;;;;;;4226956;28;20019;-61
2024/02/05 10:20:29;;;;;;;1.30;1.13;;;11.10;99.90;;;;;;4227831;28;20027;-62
2024/02/05 10:22:30;;;;;;;1.40;1.00;;;11.10;99.90;;;;;;4226863;28;20192;-64
2024/02/05 10:24:36;;;;;;;2.00;0.80;;;11.00;99.90;;;;;;4227685;28;20080;-63
2024/02/05 10:26:37;;;;;;;1.53;1.10;;;10.90;99.90;;;;;;4227234;28;20433;-62
2024/02/05 10:28:39;;;;;;;1.57;0.67;;;10.90;99.90;;;;;;4227567;28;20031;-63
2024/02/05 10:30:40;;;;;;;1.20;0.90;;;10.80;99.90;;;;;;4227308;28;20024;-62
2024/02/05 10:32:41;;;;;;;4.53;1.10;;;10.80;99.90;;;;;;4227093;28;20073;-63
2024/02/05 10:34:49;;;;;;;2.13;1.07;;;10.70;99.90;;;;;;4227277;28;20549;-63
2024/02/05 10:36:52;;;;;;;3.27;1.20;;;10.70;99.90;;;;;;4226704;28;20051;-63
2024/02/05 10:38:54;;;;;;;1.30;0.90;;;10.70;99.90;;;;;;4227828;28;20057;-64